Главная страница
METAR-TAF:

METAR-TAF

Аэропорты :

Sullivan County International Airport

Monticello, Нью-Йорк, США

широта: 41-42N, долгота: 074-48W, высота над уровнем моря: 428 м

Текущие метеонаблюдения

Эта сводка был подготовлена 30 минут назад, в 17:56 UTC
Штиль
Температура 18°C
Влажность 77%
Давление 1013 hPa
Видимость: 16.1 км
Сплошная облачность на высоте 2300 фута

METAR: KMSV 121756Z AUTO 00000KT 10SM OVC023 18/14 A2990 RMK AO2 SLP122 60000 T01830139 10194 20150 50002

Время: 14:26 (18:26 UTC)


TAF: отсутствует

Метеонаблюдения и прогнозы для более 4000 аэропортов (сводки METAR и TAF).

Имеющиеся станции представлены на карте желтыми и красными точками.

Чтобы увидеть название станции, наведите на нее мышь.

Затем щелкните, чтобы увидеть метеонаблюдения и метеопрогнозы.

Управление картой: чтобы увеличить масштаб, щелкните зеленые кнопки с черным крестиком; чтобы уменьшить масштаб, щелкните зеленую кнопку с тире; для просмотра соседних карт щелкайте зеленые стрелки.


METAR-TAF: